Time;durP1;ratioP1;P1;durP2;ratioP2;P2;SDS_P1;SDS_P2;PMS_P1;PMS_P2;Temp;Humidity;BMP_temperature;BMP_pressure;BME280_temperature;BME280_humidity;BME280_pressure;Samples;Min_cycle;Max_cycle;Signal;HPM_P1;HPM_P2
2022/07/26 00:01:21;;;;;;;6.95;3.83;;;;;;;24.21;62.00;100138.25;5028036;28;20032;-76
2022/07/26 00:03:48;;;;;;;5.85;3.60;;;;;;;23.94;62.39;100111.66;5029297;28;20435;-75
2022/07/26 00:06:14;;;;;;;6.95;3.50;;;;;;;24.03;62.42;100137.78;5030201;28;20511;-77
2022/07/26 00:08:39;;;;;;;5.45;3.50;;;;;;;24.19;61.83;100143.56;5030090;28;20053;-75
2022/07/26 00:11:05;;;;;;;5.35;3.20;;;;;;;24.17;61.81;100124.25;5029682;28;20022;-76
2022/07/26 00:13:30;;;;;;;7.82;3.42;;;;;;;24.38;61.43;100143.09;5030276;28;20037;-74
2022/07/26 00:15:57;;;;;;;6.93;4.13;;;;;;;24.11;61.42;100092.75;5030602;28;20053;-75
2022/07/26 00:18:23;;;;;;;6.60;3.80;;;;;;;24.23;61.72;100126.75;5029836;28;20434;-74
2022/07/26 00:20:48;;;;;;;7.55;3.80;;;;;;;24.12;62.78;100135.84;5029504;28;20108;-71
2022/07/26 00:23:14;;;;;;;7.20;4.05;;;;;;;24.03;63.22;100135.16;5028582;28;20063;-71
2022/07/26 00:25:40;;;;;;;6.13;3.97;;;;;;;23.88;63.37;100119.69;5011594;28;20033;-71
2022/07/26 00:28:06;;;;;;;7.53;3.83;;;;;;;23.98;63.32;100133.53;5030101;28;20034;-70
2022/07/26 00:30:32;;;;;;;6.97;3.80;;;;;;;23.97;63.48;100123.91;5030028;28;20125;-70
2022/07/26 00:32:57;;;;;;;6.45;3.90;;;;;;;24.09;63.09;100130.63;5030136;28;20034;-69
2022/07/26 00:35:23;;;;;;;8.77;4.20;;;;;;;24.03;63.24;100127.25;5030276;28;20080;-74
2022/07/26 00:37:49;;;;;;;6.15;3.70;;;;;;;23.71;63.78;100094.59;5032345;28;20026;-72
2022/07/26 00:40:15;;;;;;;7.68;3.83;;;;;;;23.94;63.52;100129.22;5034115;28;20549;-78
2022/07/26 00:42:41;;;;;;;8.02;4.13;;;;;;;23.76;63.35;100094.47;5016612;28;20380;-73
2022/07/26 00:45:08;;;;;;;10.45;4.28;;;;;;;23.92;63.86;100120.50;5034113;28;20521;-74
2022/07/26 00:47:33;;;;;;;7.65;4.00;;;;;;;23.84;64.43;100129.44;5033336;28;20096;-74
2022/07/26 00:49:59;;;;;;;10.43;3.92;;;;;;;23.56;65.15;100092.28;5032982;28;20475;-78
2022/07/26 00:52:25;;;;;;;7.63;4.05;;;;;;;23.66;65.38;100128.06;5033141;28;20061;-75
2022/07/26 00:54:53;;;;;;;8.40;3.83;;;;;;;23.24;65.28;100071.06;5033066;28;20028;-74
2022/07/26 00:57:20;;;;;;;8.27;3.78;;;;;;;23.51;65.85;100125.78;5033215;28;20100;-74
2022/07/26 00:59:46;;;;;;;6.80;4.15;;;;;;;23.50;65.85;100131.97;4997360;28;20117;-73
2022/07/26 01:02:12;;;;;;;7.90;4.00;;;;;;;23.34;66.37;100115.63;4991530;28;20030;-74
2022/07/26 01:04:37;;;;;;;7.63;4.05;;;;;;;23.31;66.30;100121.81;4999527;28;20042;-74
2022/07/26 01:07:04;;;;;;;5.47;4.10;;;;;;;22.91;67.08;100062.06;4999472;28;20548;-76
2022/07/26 01:09:30;;;;;;;8.38;4.53;;;;;;;23.18;67.35;100126.47;4991488;28;20034;-76
2022/07/26 01:11:56;;;;;;;4.82;3.92;;;;;;;23.14;67.22;100122.16;4991881;28;20057;-74
2022/07/26 01:14:23;;;;;;;6.38;4.22;;;;;;;23.08;67.74;100107.34;5005126;28;20028;-75
2022/07/26 01:16:49;;;;;;;7.05;4.10;;;;;;;22.79;67.80;100055.28;4991420;28;20026;-75
2022/07/26 01:19:15;;;;;;;7.32;4.20;;;;;;;23.06;68.18;100098.59;4991186;28;20038;-74
2022/07/26 01:21:41;;;;;;;6.88;3.90;;;;;;;23.13;68.66;100111.63;4991356;28;20049;-73
2022/07/26 01:24:07;;;;;;;8.57;4.00;;;;;;;23.21;68.79;100107.97;4991001;28;20054;-75
2022/07/26 01:26:32;;;;;;;6.43;3.85;;;;;;;22.87;69.75;100056.00;4991298;28;20027;-75
2022/07/26 01:28:58;;;;;;;6.40;4.30;;;;;;;23.12;70.42;100102.03;4991106;28;20038;-73
2022/07/26 01:31:24;;;;;;;7.90;4.40;;;;;;;23.17;70.42;100105.47;4991057;28;20050;-75
2022/07/26 01:33:50;;;;;;;12.93;4.47;;;;;;;23.10;69.59;100095.03;4991076;28;20514;-74
2022/07/26 01:36:16;;;;;;;14.55;4.82;;;;;;;23.03;69.35;100084.63;4995792;28;20048;-77
2022/07/26 01:38:42;;;;;;;9.80;4.15;;;;;;;23.09;69.98;100109.06;5032965;28;20112;-73
2022/07/26 01:41:08;;;;;;;10.27;4.13;;;;;;;23.04;70.02;100110.06;5032655;28;20137;-79
2022/07/26 01:43:35;;;;;;;11.05;4.88;;;;;;;22.98;69.94;100110.19;5032637;28;20022;-78
2022/07/26 01:46:01;;;;;;;8.38;4.78;;;;;;;22.81;69.99;100092.13;5020587;28;20022;-76
2022/07/26 01:48:27;;;;;;;9.02;4.22;;;;;;;22.99;69.87;100110.16;5011934;28;20431;-76
2022/07/26 01:50:52;;;;;;;8.65;4.22;;;;;;;22.68;70.72;100086.19;5012243;28;20041;-77
2022/07/26 01:53:18;;;;;;;14.05;4.78;;;;;;;22.57;70.63;100074.13;5020181;28;20104;-74
2022/07/26 01:55:43;;;;;;;9.52;4.80;;;;;;;22.39;70.42;100049.06;5032843;28;20064;-75
2022/07/26 01:58:08;;;;;;;5.68;4.63;;;;;;;22.62;71.21;100108.25;5032277;28;20022;-75
2022/07/26 02:00:34;;;;;;;8.10;4.03;;;;;;;22.44;71.61;100084.03;5032267;28;20038;-75
2022/07/26 02:03:00;;;;;;;7.53;4.35;;;;;;;22.53;71.34;100104.03;5031997;28;20025;-76
2022/07/26 02:05:26;;;;;;;7.65;4.22;;;;;;;22.57;70.84;100110.97;5032260;28;20056;-74
2022/07/26 02:07:51;;;;;;;9.57;4.10;;;;;;;22.56;70.81;100111.00;5032136;28;20511;-76
2022/07/26 02:10:17;;;;;;;16.30;4.50;;;;;;;22.52;71.33;100114.56;5032165;28;20100;-75
2022/07/26 02:12:43;;;;;;;8.45;4.60;;;;;;;22.43;70.94;100095.44;5032289;28;20029;-76
2022/07/26 02:15:09;;;;;;;10.70;4.60;;;;;;;22.41;71.21;100083.22;5032379;28;20491;-80
2022/07/26 02:17:35;;;;;;;9.20;4.60;;;;;;;22.14;72.56;100085.38;5031776;28;20064;-76
2022/07/26 02:20:01;;;;;;;10.55;4.47;;;;;;;22.23;73.21;100108.91;5031827;28;20057;-75
2022/07/26 02:22:26;;;;;;;10.10;4.50;;;;;;;22.28;72.72;100104.44;5032236;28;20105;-76
2022/07/26 02:24:52;;;;;;;9.95;4.50;;;;;;;22.34;72.28;100113.09;5031863;28;20029;-75
2022/07/26 02:27:19;;;;;;;8.50;4.60;;;;;;;22.34;72.00;100086.81;5032041;28;20399;-75
2022/07/26 02:29:45;;;;;;;10.93;4.63;;;;;;;22.51;71.85;100110.22;5014019;28;20660;-76
2022/07/26 02:32:10;;;;;;;10.13;4.53;;;;;;;22.36;71.89;100091.13;5031523;28;20029;-75
2022/07/26 02:34:36;;;;;;;10.70;4.97;;;;;;;22.43;72.09;100110.31;5031831;28;20021;-76
2022/07/26 02:37:02;;;;;;;14.85;4.70;;;;;;;22.06;72.18;100050.50;5031884;28;20029;-76
2022/07/26 02:39:28;;;;;;;10.18;4.80;;;;;;;22.38;72.50;100099.91;5031949;28;20109;-75
2022/07/26 02:41:55;;;;;;;8.60;4.45;;;;;;;22.52;72.51;100114.56;5031696;28;20108;-75
2022/07/26 02:44:22;;;;;;;8.60;4.68;;;;;;;22.53;72.82;100122.44;5031805;28;20125;-75
2022/07/26 02:46:47;;;;;;;8.60;4.63;;;;;;;22.28;72.67;100078.13;5031352;28;20095;-75
2022/07/26 02:49:13;;;;;;;6.32;4.68;;;;;;;22.61;71.83;100119.66;5031707;28;20017;-74
2022/07/26 02:51:38;;;;;;;10.15;4.20;;;;;;;22.46;72.35;100112.91;5031297;28;20444;-76
2022/07/26 02:54:04;;;;;;;10.32;5.07;;;;;;;22.47;71.84;100114.66;5031978;28;20455;-76
2022/07/26 02:56:29;;;;;;;8.55;4.38;;;;;;;22.33;72.13;100088.56;5031419;28;20484;-76
2022/07/26 02:58:55;;;;;;;10.50;5.05;;;;;;;22.36;72.65;100117.44;5031041;28;20018;-75
2022/07/26 03:01:21;;;;;;;13.13;4.97;;;;;;;21.97;72.32;100068.13;5030520;28;20104;-75
2022/07/26 03:03:47;;;;;;;26.80;6.32;;;;;;;21.91;73.27;100056.88;5031300;28;20025;-75
2022/07/26 03:06:13;;;;;;;16.80;5.32;;;;;;;22.21;73.13;100109.81;5031166;28;20108;-75
2022/07/26 03:08:38;;;;;;;14.18;5.53;;;;;;;22.15;73.37;100118.66;5031358;28;20611;-75
2022/07/26 03:11:04;;;;;;;10.52;4.57;;;;;;;22.00;73.60;100108.41;5031127;28;20030;-74
2022/07/26 03:13:29;;;;;;;7.10;4.63;;;;;;;22.04;74.59;100117.97;5030877;28;20029;-76
2022/07/26 03:15:55;;;;;;;13.70;5.82;;;;;;;22.00;74.63;100118.94;5030551;28;20029;-76
2022/07/26 03:18:20;;;;;;;10.60;4.80;;;;;;;21.97;73.76;100106.72;5031190;28;20033;-75
2022/07/26 03:20:46;;;;;;;9.43;5.43;;;;;;;22.03;75.13;100119.75;5031264;28;20559;-75
2022/07/26 03:23:12;;;;;;;6.90;4.97;;;;;;;21.90;76.43;100123.47;5030478;28;20045;-74
2022/07/26 03:25:37;;;;;;;8.88;4.95;;;;;;;21.92;77.53;100122.53;5030860;28;20042;-75
2022/07/26 03:28:03;;;;;;;8.35;5.40;;;;;;;21.88;78.65;100109.47;5030956;28;20052;-75
2022/07/26 03:30:28;;;;;;;7.72;4.82;;;;;;;21.50;78.93;100049.56;5030705;28;20472;-74
2022/07/26 03:32:54;;;;;;;6.90;5.30;;;;;;;21.85;78.83;100120.88;5030568;28;20027;-75
2022/07/26 03:35:19;;;;;;;9.77;5.15;;;;;;;22.00;78.72;100127.66;5030601;28;20025;-75
2022/07/26 03:37:45;;;;;;;6.50;5.10;;;;;;;22.04;78.25;100129.34;5030898;28;20032;-75
2022/07/26 03:40:11;;;;;;;11.00;5.90;;;;;;;22.02;78.83;100114.50;5030330;28;20017;-77
2022/07/26 03:42:37;;;;;;;9.30;5.60;;;;;;;22.10;78.58;100117.88;5030751;28;20092;-75
2022/07/26 03:45:03;;;;;;;15.57;5.68;;;;;;;22.03;78.91;100119.75;5030438;28;20013;-75
2022/07/26 03:47:28;;;;;;;17.33;6.45;;;;;;;21.98;79.33;100124.19;5030196;28;20511;-75
2022/07/26 03:49:54;;;;;;;16.27;5.93;;;;;;;21.95;79.97;100130.34;5030488;28;20478;-75
2022/07/26 03:52:19;;;;;;;13.77;6.00;;;;;;;22.06;80.02;100124.09;5030223;28;20036;-75
2022/07/26 03:54:44;;;;;;;10.18;6.15;;;;;;;22.21;78.83;100123.81;5030196;28;20029;-76
2022/07/26 03:57:10;;;;;;;9.70;5.85;;;;;;;22.40;77.60;100128.81;5029972;28;20036;-78
2022/07/26 03:59:35;;;;;;;9.45;5.47;;;;;;;22.08;78.20;100069.69;5030014;28;20028;-76
2022/07/26 04:02:01;;;;;;;12.63;6.20;;;;;;;22.29;79.03;100119.31;5030234;28;20022;-75
2022/07/26 04:04:26;;;;;;;11.40;5.43;;;;;;;22.20;78.77;100122.09;5030305;28;20021;-75
2022/07/26 04:06:52;;;;;;;10.95;6.30;;;;;;;22.00;79.41;100113.66;5030077;28;20029;-75
2022/07/26 04:09:18;;;;;;;12.43;6.38;;;;;;;22.09;79.45;100122.28;5030543;28;20036;-79
2022/07/26 04:11:43;;;;;;;19.85;7.10;;;;;;;21.90;79.93;100129.56;5028999;28;20037;-78
2022/07/26 04:14:10;;;;;;;18.67;6.80;;;;;;;21.53;79.88;100077.53;5030173;28;20025;-76
2022/07/26 04:16:35;;;;;;;15.60;6.70;;;;;;;21.96;79.40;100134.72;5029953;28;20053;-76
2022/07/26 04:19:01;;;;;;;13.82;6.60;;;;;;;21.98;78.87;100130.31;5030099;28;20034;-76
2022/07/26 04:21:26;;;;;;;13.85;6.70;;;;;;;22.05;77.98;100128.47;5029967;28;20043;-77
2022/07/26 04:23:52;;;;;;;15.85;6.70;;;;;;;22.19;78.13;100130.00;5030069;28;20053;-76
2022/07/26 04:26:19;;;;;;;13.90;6.40;;;;;;;22.10;77.30;100095.06;5030196;28;20553;-76
2022/07/26 04:28:45;;;;;;;13.80;6.35;;;;;;;22.46;77.58;100132.19;5029739;28;20539;-78
2022/07/26 04:31:11;;;;;;;18.45;6.97;;;;;;;22.43;77.40;100129.63;5029369;28;20168;-76
2022/07/26 04:33:36;;;;;;;15.82;6.85;;;;;;;22.50;76.22;100133.00;5030017;28;20029;-77
2022/07/26 04:36:02;;;;;;;18.65;6.50;;;;;;;22.55;77.64;100127.66;5029951;28;20091;-74
2022/07/26 04:38:28;;;;;;;16.63;6.53;;;;;;;22.65;76.91;100126.59;5029523;28;20112;-76
2022/07/26 04:40:54;;;;;;;13.02;6.75;;;;;;;22.64;76.87;100119.59;5029860;28;20033;-75
2022/07/26 04:43:20;;;;;;;15.50;6.70;;;;;;;22.70;76.06;100116.00;5029613;28;20014;-75
2022/07/26 04:45:46;;;;;;;26.88;7.10;;;;;;;22.69;76.80;100133.56;5029856;28;20489;-77
2022/07/26 04:48:12;;;;;;;20.17;7.32;;;;;;;22.66;76.81;100140.63;5029609;28;20468;-74
2022/07/26 04:50:38;;;;;;;12.23;6.70;;;;;;;22.36;77.66;100080.63;5029685;28;20095;-77
2022/07/26 04:53:04;;;;;;;24.90;7.55;;;;;;;22.77;77.86;100133.41;5029631;28;20466;-76
2022/07/26 04:55:30;;;;;;;17.35;6.90;;;;;;;22.75;77.65;100132.56;5029564;28;20472;-77
2022/07/26 04:57:55;;;;;;;15.45;7.13;;;;;;;22.64;77.32;100081.91;5029389;28;20026;-78
2022/07/26 05:00:24;;;;;;;16.02;7.10;;;;;;;23.09;76.01;100122.25;5011873;28;20018;-77
2022/07/26 05:02:55;;;;;;;16.73;7.68;;;;;;;22.96;76.89;100115.47;5029678;28;20026;-75
2022/07/26 05:05:22;;;;;;;17.35;7.47;;;;;;;22.95;77.67;100134.81;5029745;28;20034;-77
2022/07/26 05:07:51;;;;;;;21.05;7.65;;;;;;;22.93;76.12;100111.16;5029645;28;20527;-78
2022/07/26 05:10:18;;;;;;;16.50;6.53;;;;;;;23.24;74.76;100125.47;5029419;28;20542;-76
2022/07/26 05:12:45;;;;;;;13.73;6.07;;;;;;;23.45;73.40;100124.16;5027872;28;20041;-77
2022/07/26 05:15:11;;;;;;;13.25;6.97;;;;;;;23.61;73.70;100119.41;5027946;28;20030;-75
2022/07/26 05:17:38;;;;;;;14.05;6.13;;;;;;;23.66;72.50;100106.97;5029438;28;20018;-76
2022/07/26 05:20:05;;;;;;;13.32;6.53;;;;;;;23.75;72.47;100117.34;5026999;28;20072;-78
2022/07/26 05:22:32;;;;;;;16.52;6.75;;;;;;;23.62;71.65;100101.84;5026403;28;20050;-76
2022/07/26 05:24:57;;;;;;;24.08;6.70;;;;;;;23.52;71.83;100090.66;5031880;28;20052;-81
2022/07/26 05:27:23;;;;;;;12.50;6.43;;;;;;;23.78;72.60;100126.09;5030116;28;20492;-77
2022/07/26 05:29:48;;;;;;;16.75;6.18;;;;;;;23.83;71.60;100111.88;5031656;28;20025;-76
2022/07/26 05:32:14;;;;;;;16.73;6.32;;;;;;;23.96;72.62;100127.44;5014454;28;20033;-77
2022/07/26 05:34:40;;;;;;;11.70;6.03;;;;;;;23.90;72.05;100108.19;5032878;28;20462;-76
2022/07/26 05:37:06;;;;;;;11.07;5.65;;;;;;;24.01;70.97;100118.53;5032774;28;20030;-77
2022/07/26 05:39:31;;;;;;;14.48;6.28;;;;;;;24.18;70.55;100125.16;5033003;28;20393;-76
2022/07/26 05:41:56;;;;;;;15.25;6.38;;;;;;;24.08;70.68;100110.47;5032297;28;20026;-76
2022/07/26 05:44:23;;;;;;;17.27;6.80;;;;;;;24.17;70.22;100118.13;5032814;28;20071;-74
2022/07/26 05:46:49;;;;;;;18.48;6.18;;;;;;;24.29;69.23;100098.47;5032694;28;20428;-76
2022/07/26 05:49:15;;;;;;;19.10;6.00;;;;;;;24.41;68.70;100115.78;5032521;28;20029;-74
2022/07/26 05:51:40;;;;;;;16.05;6.32;;;;;;;24.44;70.74;100115.72;5032374;28;20030;-77
2022/07/26 05:54:06;;;;;;;11.98;6.28;;;;;;;24.58;71.59;100108.28;5032454;28;20103;-77
2022/07/26 05:56:31;;;;;;;14.80;6.00;;;;;;;24.80;69.46;100110.34;5032036;28;20052;-77
2022/07/26 05:58:57;;;;;;;14.75;6.15;;;;;;;24.75;67.56;100070.00;5014967;28;20068;-76
2022/07/26 06:01:22;;;;;;;19.67;6.25;;;;;;;25.06;67.57;100100.81;5032513;28;20037;-77
2022/07/26 06:03:48;;;;;;;10.50;5.65;;;;;;;25.22;65.24;100107.38;5032263;28;20108;-77
2022/07/26 06:06:14;;;;;;;9.35;4.50;;;;;;;25.22;63.85;100088.88;5032341;28;20029;-76
2022/07/26 06:08:39;;;;;;;11.73;4.95;;;;;;;25.48;61.06;100097.84;5032086;28;20480;-76
2022/07/26 06:11:05;;;;;;;5.72;4.15;;;;;;;25.52;59.30;100100.34;5031464;28;20025;-76
2022/07/26 06:13:31;;;;;;;8.10;4.20;;;;;;;25.63;58.52;100101.78;5014458;28;20022;-74
2022/07/26 06:15:56;;;;;;;5.78;3.92;;;;;;;25.76;57.62;100102.28;5031582;28;20487;-76
2022/07/26 06:18:22;;;;;;;9.70;4.47;;;;;;;25.50;57.35;100049.31;5031549;28;20033;-78
2022/07/26 06:20:48;;;;;;;11.02;4.72;;;;;;;25.95;57.46;100098.09;5032365;28;20028;-78
2022/07/26 06:23:14;;;;;;;5.70;3.80;;;;;;;26.00;56.47;100080.28;5031520;28;20069;-79
2022/07/26 06:25:40;;;;;;;10.68;4.57;;;;;;;26.19;55.55;100092.94;5031427;28;20099;-76
2022/07/26 06:28:07;;;;;;;8.75;5.05;;;;;;;26.25;56.62;100079.50;5032209;28;20029;-74
2022/07/26 06:30:34;;;;;;;11.32;4.60;;;;;;;26.41;54.67;100086.94;5031717;28;20044;-77
2022/07/26 06:32:59;;;;;;;11.75;4.78;;;;;;;26.37;54.80;100080.88;5031686;28;20036;-77
2022/07/26 06:35:29;;;;;;;11.43;4.68;;;;;;;26.50;53.50;100088.38;5030765;28;20029;-77
2022/07/26 06:37:56;;;;;;;11.73;4.45;;;;;;;26.34;54.68;100048.34;5014869;28;20041;-77
2022/07/26 06:40:22;;;;;;;14.90;4.65;;;;;;;26.47;53.75;100054.94;5029735;28;20036;-75
2022/07/26 06:42:47;;;;;;;10.80;4.63;;;;;;;26.77;53.68;100083.91;5031268;28;20025;-77
2022/07/26 06:45:13;;;;;;;13.07;4.68;;;;;;;26.56;54.34;100061.69;5031029;28;20479;-79
2022/07/26 06:47:38;;;;;;;21.30;5.22;;;;;;;26.71;55.02;100084.09;5031296;28;20029;-79
2022/07/26 06:50:07;;;;;;;13.40;4.88;;;;;;;26.64;53.54;100064.91;5028655;28;20025;-78
2022/07/26 06:52:33;;;;;;;16.67;5.10;;;;;;;26.71;55.23;100071.72;5021307;28;20030;-79
2022/07/26 06:54:59;;;;;;;12.82;5.10;;;;;;;26.79;52.65;100079.41;5024542;28;20034;-75
2022/07/26 06:57:25;;;;;;;16.05;5.43;;;;;;;26.86;52.69;100072.13;5030785;28;20030;-80
2022/07/26 06:59:51;;;;;;;6.38;3.50;;;;;;;26.92;49.19;100070.09;5031077;28;20048;-76
2022/07/26 07:02:17;;;;;;;11.52;4.40;;;;;;;27.04;49.64;100070.53;5031113;28;20051;-78
2022/07/26 07:04:42;;;;;;;13.05;4.57;;;;;;;27.26;47.37;100079.41;5032129;28;20498;-80
2022/07/26 07:07:08;;;;;;;9.73;4.07;;;;;;;27.11;46.79;100033.16;5029953;28;20492;-77
2022/07/26 07:09:35;;;;;;;8.40;4.20;;;;;;;27.53;46.72;100068.66;5030408;28;20021;-78
2022/07/26 07:12:02;;;;;;;10.60;4.78;;;;;;;27.29;48.34;100057.19;5030575;28;20030;-77
2022/07/26 07:14:28;;;;;;;10.85;4.80;;;;;;;27.27;50.90;100074.97;5028483;28;20456;-78
2022/07/26 07:16:54;;;;;;;10.45;4.60;;;;;;;27.34;50.28;100070.28;5013033;28;20112;-78
2022/07/26 07:19:20;;;;;;;11.43;4.90;;;;;;;27.39;50.27;100050.63;5030848;28;20041;-81
2022/07/26 07:21:45;;;;;;;8.38;4.47;;;;;;;27.48;51.95;100061.81;5030659;28;20033;-77
2022/07/26 07:24:11;;;;;;;13.48;8.27;;;;;;;27.58;50.61;100068.50;5030559;28;20737;-75
2022/07/26 07:26:37;;;;;;;10.45;5.15;;;;;;;27.58;48.78;100052.59;5027607;28;20035;-75
2022/07/26 07:29:02;;;;;;;16.85;4.68;;;;;;;27.75;48.75;100063.38;5030535;28;20477;-77
2022/07/26 07:31:28;;;;;;;5.22;3.88;;;;;;;27.91;47.33;100063.59;5029899;28;20061;-77
2022/07/26 07:33:53;;;;;;;7.63;4.20;;;;;;;27.89;46.65;100060.13;5030175;28;20100;-76
2022/07/26 07:36:19;;;;;;;6.82;4.70;;;;;;;27.73;46.87;100013.97;5029930;28;20017;-76
2022/07/26 07:38:45;;;;;;;6.70;4.28;;;;;;;28.27;44.84;100061.25;5030236;28;20476;-77
2022/07/26 07:41:10;;;;;;;11.38;5.10;;;;;;;28.43;44.83;100066.78;5030194;28;20028;-77
2022/07/26 07:43:36;;;;;;;6.75;4.22;;;;;;;28.50;44.77;100050.50;5029803;28;20524;-76
2022/07/26 07:46:02;;;;;;;6.60;4.60;;;;;;;28.63;45.80;100061.41;5028760;28;20033;-78
2022/07/26 07:48:27;;;;;;;6.95;4.78;;;;;;;28.66;43.85;100052.44;5029571;28;20389;-76
2022/07/26 07:50:53;;;;;;;8.55;4.60;;;;;;;28.80;44.46;100073.09;5029367;28;20033;-77
2022/07/26 07:53:18;;;;;;;7.45;5.18;;;;;;;28.92;43.74;100077.00;5028934;28;20410;-76
2022/07/26 07:55:44;;;;;;;8.05;4.90;;;;;;;28.96;44.16;100052.00;5029747;28;20143;-76
2022/07/26 07:58:09;;;;;;;8.13;5.10;;;;;;;29.13;43.16;100065.38;5030002;28;20022;-76
2022/07/26 08:00:35;;;;;;;8.30;4.82;;;;;;;29.07;43.28;100049.72;5029727;28;20037;-77
2022/07/26 08:03:00;;;;;;;7.13;5.03;;;;;;;29.11;42.91;100048.66;5029186;28;20033;-76
2022/07/26 08:05:26;;;;;;;6.07;5.07;;;;;;;29.18;42.99;100051.88;5029064;28;20021;-78
2022/07/26 08:07:51;;;;;;;8.80;5.43;;;;;;;29.03;45.77;100024.22;5028388;28;20112;-76
2022/07/26 08:10:17;;;;;;;9.82;5.20;;;;;;;29.01;44.77;100024.31;5011645;28;20052;-76
2022/07/26 08:12:43;;;;;;;11.70;5.78;;;;;;;28.97;44.27;99997.94;5028902;28;20036;-77
2022/07/26 08:15:09;;;;;;;7.32;4.93;;;;;;;29.40;42.81;100038.44;5011893;28;20017;-75
2022/07/26 08:17:35;;;;;;;9.57;5.70;;;;;;;29.56;46.78;100054.53;5011609;28;20075;-76
2022/07/26 08:20:01;;;;;;;8.27;6.00;;;;;;;29.30;44.31;99997.28;5029049;28;20026;-75
2022/07/26 08:22:27;;;;;;;9.82;6.00;;;;;;;29.24;47.21;99986.94;5028494;28;20038;-75
2022/07/26 08:24:52;;;;;;;9.85;5.68;;;;;;;29.50;44.80;100022.91;5029008;28;20043;-76
2022/07/26 08:27:18;;;;;;;9.48;5.25;;;;;;;28.86;48.86;99911.63;5029510;28;20128;-76
2022/07/26 08:29:44;;;;;;;12.85;5.47;;;;;;;29.64;46.86;100015.09;5029167;28;20021;-77
2022/07/26 08:32:09;;;;;;;6.05;5.03;;;;;;;29.68;48.41;100031.75;5029375;28;20032;-75
2022/07/26 08:34:35;;;;;;;9.05;5.03;;;;;;;29.79;42.98;100024.09;5028952;28;20048;-76
2022/07/26 08:37:01;;;;;;;7.55;4.60;;;;;;;29.69;39.91;99974.97;5029167;28;20033;-75
2022/07/26 08:39:26;;;;;;;6.30;5.30;;;;;;;30.11;38.91;100026.97;4993419;28;20042;-72
2022/07/26 08:41:52;;;;;;;8.35;5.20;;;;;;;29.91;43.90;99984.53;5010447;28;20105;-75
2022/07/26 08:44:18;;;;;;;7.85;4.75;;;;;;;30.18;39.59;100019.50;5025340;28;20036;-76
2022/07/26 08:46:44;;;;;;;9.52;4.90;;;;;;;30.36;38.09;100033.66;5026320;28;20037;-76
2022/07/26 08:49:10;;;;;;;7.90;5.32;;;;;;;30.22;41.38;99972.28;5011924;28;20380;-75
2022/07/26 08:51:42;;;;;;;8.27;5.30;;;;;;;30.58;43.64;100017.44;5029842;28;20030;-77
2022/07/26 08:54:10;;;;;;;7.95;4.93;;;;;;;30.49;39.51;100018.78;5030076;28;20049;-72
2022/07/26 08:56:40;;;;;;;5.72;4.75;;;;;;;30.72;36.80;100007.81;5029716;28;20472;-72
2022/07/26 08:59:13;;;;;;;7.50;4.63;;;;;;;30.77;36.27;100001.31;5010214;28;20472;-75
2022/07/26 09:01:59;;;;;;;7.55;4.80;;;;;;;30.92;35.61;100001.41;5007951;28;20038;-75
2022/07/26 09:04:30;;;;;;;5.47;4.53;;;;;;;31.06;36.16;99992.63;5033001;28;20021;-77
2022/07/26 09:06:58;;;;;;;6.95;5.20;;;;;;;31.08;35.86;99990.75;5033267;28;20036;-76
2022/07/26 09:09:24;;;;;;;7.13;4.80;;;;;;;31.24;36.60;100004.06;5032874;28;20447;-75
2022/07/26 09:11:50;;;;;;;6.45;5.00;;;;;;;31.26;39.54;99996.88;5032687;28;20029;-77
2022/07/26 09:14:15;;;;;;;5.60;4.50;;;;;;;31.43;39.99;99995.91;5032483;28;20690;-75
2022/07/26 09:16:56;;;;;;;7.68;5.07;;;;;;;31.51;38.46;100004.28;5014928;28;20031;-77
2022/07/26 09:19:22;;;;;;;6.43;4.70;;;;;;;31.41;39.92;99985.28;5032237;28;20503;-73
2022/07/26 09:21:48;;;;;;;5.65;4.55;;;;;;;31.62;39.04;99995.69;5032638;28;20083;-73
2022/07/26 09:24:42;;;;;;;7.55;4.38;;;;;;;31.75;36.16;99978.03;5032768;28;20107;-74
2022/07/26 09:27:11;;;;;;;6.65;4.55;;;;;;;31.98;33.37;99989.13;5033122;28;20116;-74
2022/07/26 09:29:42;;;;;;;8.02;4.22;;;;;;;32.10;32.50;99980.38;5032412;28;20067;-74
2022/07/26 09:32:10;;;;;;;6.97;4.22;;;;;;;32.28;30.27;99980.22;5031099;28;20029;-77
2022/07/26 09:34:35;;;;;;;4.63;3.53;;;;;;;32.20;28.91;99926.41;5031900;28;20395;-76
2022/07/26 09:37:01;;;;;;;8.35;5.10;;;;;;;32.61;28.30;99964.84;5032038;28;20028;-75
2022/07/26 09:39:26;;;;;;;5.03;3.97;;;;;;;32.84;28.14;99966.09;5030218;28;20034;-75
2022/07/26 09:41:53;;;;;;;6.13;4.82;;;;;;;32.82;29.81;99973.34;5031266;28;20025;-77
2022/07/26 09:44:23;;;;;;;9.10;5.53;;;;;;;32.98;28.05;99968.72;5030320;28;20109;-73
2022/07/26 09:46:57;;;;;;;6.60;3.80;;;;;;;33.07;27.58;99964.56;5031229;28;20032;-70
2022/07/26 09:49:23;;;;;;;8.68;4.65;;;;;;;33.07;27.07;99967.25;5032101;28;20021;-72
2022/07/26 09:51:51;;;;;;;8.85;3.90;;;;;;;33.07;25.55;99953.88;5029824;28;20404;-73
2022/07/26 09:54:31;;;;;;;5.47;3.80;;;;;;;33.09;24.91;99951.97;5031805;28;20034;-77
2022/07/26 09:56:57;;;;;;;6.25;3.85;;;;;;;33.03;25.23;99955.88;5032225;28;20045;-74
2022/07/26 09:59:24;;;;;;;4.63;3.88;;;;;;;33.11;27.08;99951.88;5031975;28;20037;-74
2022/07/26 10:01:52;;;;;;;5.82;4.38;;;;;;;32.95;28.28;99922.59;5028187;28;20399;-73
2022/07/26 10:04:19;;;;;;;6.53;4.40;;;;;;;33.17;28.86;99935.41;5028727;28;20511;-75
2022/07/26 10:06:45;;;;;;;6.28;4.60;;;;;;;33.32;28.17;99950.50;5031810;28;20276;-74
2022/07/26 10:09:12;;;;;;;5.55;4.13;;;;;;;33.49;27.81;99952.00;5030742;28;20025;-74
2022/07/26 10:12:02;;;;;;;152.95;12.30;;;;;;;33.71;28.27;99955.91;5031994;28;20099;-75
2022/07/26 10:14:34;;;;;;;5.78;4.40;;;;;;;34.00;27.35;99959.28;5031806;28;20128;-74
2022/07/26 10:17:21;;;;;;;8.68;4.60;;;;;;;34.11;29.58;99952.31;5032479;28;20034;-75
2022/07/26 10:19:47;;;;;;;6.63;4.18;;;;;;;34.23;28.25;99954.13;4932621;29;20044;-74
2022/07/26 10:22:29;;;;;;;5.68;4.28;;;;;;;34.42;26.37;99944.81;4932294;29;20437;-74
2022/07/26 10:25:17;;;;;;;7.72;4.55;;;;;;;34.33;25.77;99940.94;4932382;29;20558;-74
2022/07/26 10:27:48;;;;;;;8.73;4.07;;;;;;;34.37;26.14;99937.13;4932441;29;20035;-74
2022/07/26 10:30:17;;;;;;;6.78;4.15;;;;;;;33.95;25.12;99897.16;4932743;29;20043;-74
2022/07/26 10:32:58;;;;;;;11.70;4.63;;;;;;;34.32;25.63;99929.38;4932450;29;20031;-75
2022/07/26 10:35:33;;;;;;;6.88;4.60;;;;;;;34.46;26.11;99924.88;4932409;29;20560;-75
2022/07/26 10:38:01;;;;;;;7.90;4.30;;;;;;;34.72;24.43;99919.44;4932275;29;20047;-75
2022/07/26 10:40:29;;;;;;;5.30;4.00;;;;;;;34.82;24.70;99909.75;4900717;29;20039;-74
2022/07/26 10:43:15;;;;;;;5.97;4.03;;;;;;;34.93;24.20;99917.88;4932142;29;20032;-75
2022/07/26 10:45:43;;;;;;;4.35;3.47;;;;;;;34.99;23.45;99912.06;4932328;29;20043;-75
2022/07/26 10:48:14;;;;;;;6.70;4.22;;;;;;;34.73;24.08;99908.63;4931823;29;20040;-74
2022/07/26 10:50:42;;;;;;;6.50;3.78;;;;;;;34.75;23.47;99898.59;4932025;29;20039;-74
2022/07/26 10:53:09;;;;;;;7.38;4.43;;;;;;;34.43;24.25;99867.00;4932154;29;20046;-75
2022/07/26 10:55:46;;;;;;;6.32;3.90;;;;;;;34.91;23.81;99903.72;4916122;29;20044;-75
2022/07/26 10:58:12;;;;;;;5.25;3.70;;;;;;;34.76;23.29;99861.94;5025417;28;20036;-75
2022/07/26 11:00:38;;;;;;;4.50;3.85;;;;;;;34.77;23.62;99832.31;5030960;28;20057;-73
2022/07/26 11:03:04;;;;;;;8.85;3.60;;;;;;;35.35;23.10;99895.97;5031380;28;20114;-74
2022/07/26 11:05:33;;;;;;;16.33;3.92;;;;;;;35.29;23.30;99891.06;5031897;28;20040;-73
2022/07/26 11:08:07;;;;;;;5.40;3.90;;;;;;;35.47;24.04;99888.84;5031566;28;20056;-75
2022/07/26 11:11:03;;;;;;;8.43;3.90;;;;;;;35.42;23.34;99873.09;5031476;28;20067;-75
2022/07/26 11:13:31;;;;;;;5.85;3.67;;;;;;;35.86;24.29;99884.00;4970029;28;20122;-74
2022/07/26 11:16:02;;;;;;;5.35;3.90;;;;;;;36.12;22.73;99873.06;4970097;28;20190;-74
2022/07/26 11:18:31;;;;;;;11.25;4.40;;;;;;;36.13;22.63;99865.84;4970247;28;20035;-75
2022/07/26 11:20:57;;;;;;;;;;;;;;;35.93;23.02;99865.63;4969830;28;20605;-74
2022/07/26 11:23:24;;;;;;;5.75;3.75;;;;;;;35.82;22.34;99861.06;4969421;28;20001;-77